[google1] Zdjęcia: WWW.MAGDALENA-LASOCKA.COM
REKLAMA
Biologiczne oczyszczalnie przydomowe Biokube:
Zostań dystrybutorem


w zakładce Filmy znajdują sie 3 klipy

ODPYLANIE.NET.PL


Żeglowanie w egipcie – Morze Czerwone

Czy warto rozważyć rejs żeglarski po wodach Egiptu, w takim rozumieniu jak planujemy rejsy po Bałtyku, Północnym czy Śródziemnym?
Zobaczcie sami.  Wiem że Egipt to miejsce które odwiedziło już wielu polskich turystów, odnoszę jednak wrażenie że głównie chodziło o leniuchowanie na plaży. Może warto by poorać Morze Czerwone

Egipt to kraj egzotycznie piękny. Zachodni brzeg Morza Czerwonego przypadł mi do gustu surową urodą nagich pustynnych gór schodzących do morza. Przy morskim brzegu znajdują się kurorty zbudowane jako zgrupowania mniej lub bardziej luksusowych hoteli położonych nad brzegiem morza,(Hurgada, Safaga, El-Gouna)  z dostępem za pomocą sieci dróg i lotnisk . Wstępne wrażenia meteorologiczne – bywa że słabo wieje i nie ma fal.  Skaliste dno nie wybacza wielu błędów nawigacyjnych. Pod wodą wszakże mnogość  atrakcji -wystarczy zwykła fajka z maską aby znaleźć się w otoczeniu przepięknych ławic egzotycznych gatunków ryb. Warto również wymienić ciekawskie delfiny, które podpływają dużo bliżej niż te, które można spotkać np w Portugalii.

 








Kontenerowcem w trawnik- Hansa Constitution w Hong-Hongu

Zawsze uważałem że fajnie jest mieszkać nad morzem . To jedno z moich marzeń.
Oprócz tego że mógłbym częściej żeglować, miałbym szansę na zarejestrowanie takiego wydarzenia

zwróćcie uwagę na pracę kotwic na dziobie.
Ciekawi mnie jak głęboko jest w tym miejscu bo choć gruszka dziobowa prawie na trawie to teoretycznie ten statek ma 11m zanurzenia. Zapewne kontenery nie były zbyt ciężkie.

Kolizja dwóch statków w Kanale Kilońskim, do czego może się przydać AIS, info o pogodzie

Dwa statki   Siderfly (nawozy)  i Coral Ivory (amoniak)  zderzyły się w poniedziałek nad ranem w Kanale Kilońskim. Kanał pozostaje zamknięty w najbliższym czasie.

tak to wygląda na zdjęciach:

http://gcaptain.com/kiel-canal-remains-closed-ship-collsions-siderfly-photos/

tak to wyglądało na ekranach :

szukam informacji o pogodzie. Dane z Lotniska w Kilonii Kiel Fridrichsort :
METAR EDHK 280720Z 19012G22KT 9000 -RA BKN008 BKN016 12/11
Q0989=
godz 7:20 wiatr 12 w por 22 kt z kier 190, ale to kilka godzin po incydencie

lotnisko Lubeka
METAR EDHL 280520Z 20009KT 6000 DZ FEW013 BKN016 12/10 Q0994=
godz 5:20 wiatr 9 kt z kier 200
lotnisko Hamburg mniej więcej o czasie wypadku
METAR EDDH 280150Z 21016KT 9999 SCT033 13/09 Q0997 TEMPO
23020G30KT=
Hamburg godz 01:50 wiatr 16 kt z kier 210
źródło ogimet.com

Zakładamy że statek ma radar, AIS i okna na mostku. Zatem ciekawe co poszło nie tak…  za jakiś czas  dowiemy się  co ustaliły odpowiednie służby. Nikt nie ucierpiał i nie doszło do uwolnienie amoniaku.

 

to najbardziej uczęszczana sztuczna droga wodna , takie rzeczy zdarzają się co jakiś czas

Gdyby to była kolizja z udziałem jachtu. Ale by było dyskusji…